Birmingham, AL (35290)

8:57 PM CDT on August 27, 2014 (GMT -0500)
North Crestwood | Change Station
CLOSE
Current Station
Personal Weather Station
Location: Birmingham, AL
Elevation: 780 ft
Nearby Weather Stations

Elev 780 ft 33.53 °N, 86.75 °W | Updated 32 seconds ago

Clear
Clear
77.0 °F
Feels Like 79 °F
N
0.0
Wind Variable Wind from South
Gusts 0.0 mph

Today
High -- | Low -- °F
--% Chance of Precip.
Yesterday
High -- | Low -- °F
Precip. -- in
6:17 AM 7:18 PM
Waxing Crescent, 6% visible
Pressure 30.03 in
Visibility 10.0 miles
Clouds Clear
Heat Index 79 °F
Dew Point 61 °F
Humidity 57%
Rainfall 0.00 in
Snow Depth Not available.
UV 0 out of 12
Pollen 9.30 out of 12
Ozone Good
PM2.5 Good
Flu Activity Not available.
METAR KBHM 280153Z 00000KT 10SM CLR 26/16 A3005 RMK AO2 SLP168 T02560161

More Conditions Fewer Conditions

Pressure 30.03 in
Visibility 10.0 miles
Clouds Clear
Heat Index 79 °F
Dew Point 61 °F
Humidity 57%
Rainfall 0.00 in
Snow Depth Not available.
UV 0 out of 12
Pollen 9.30 out of 12
Ozone Good
PM2.5 Good
Flu Activity Not available.
METAR KBHM 280153Z 00000KT 10SM CLR 26/16 A3005 RMK AO2 SLP168 T02560161

More Conditions Fewer Conditions

10-Day Weather Forecast

Almanac

Astronomy

Aug. 27, 2014 Rise Set
Actual Time 6:17 AM CDT 7:18 PM CDT
Civil Twilight 5:51 AM CDT 7:44 PM CDT
Nautical Twilight 5:21 AM CDT 8:14 PM CDT
Astronomical Twilight 4:50 AM CDT 8:45 PM CDT
Moon 8:05 AM CDT (8/27) 8:19 PM CDT (8/27)
Length of Visible Light 13h 52m
Length of Day
13h 01m
Tomorrow will be 1m 58s shorter.
Waxing Crescent, 6% of the Moon is Illuminated
Today
Waxing Crescent
Sep 2
First Quarter
Sep 8
Full
Sep 15
Last Quarter
Sep 24
New

Today's Extremes

State Highs State Lows

Community

WunderPhotos

Upload Photos

1,747,855 photos uploaded!

Nearby

Air Quality

  Air Quality AQ Index Pollutant
Yesterday Good
PM10
Yesterday Good
OZONE
Current Good
PM2.5
Current Good
OZONE
Wednesday Unhealthy for Sensitive Groups
OZONE
Wednesday Moderate
PM2.5
Thursday Unhealthy for Sensitive Groups
OZONE
Thursday Moderate
PM2.5

Snow Depth

Station Depth Elevation
No new snow has been reported.

Earthquake Activity

City Distance Mag. Time & Date
No recent earthquake activity has been reported nearby.
Minimum magnitude displayed is 2.5.

Coastal Water Temperatures

Place Temperature
No Stations Reporting

Nearby Weather Stations